createdAt,value
2018-10-12T00:00:27.138Z,79.20
2018-10-12T00:02:56.639Z,79.30
2018-10-12T00:05:26.159Z,79.60
2018-10-12T00:07:55.748Z,79.50
2018-10-12T00:10:25.014Z,79.60
2018-10-12T00:12:54.110Z,80.00
2018-10-12T00:15:23.350Z,79.80
2018-10-12T00:17:52.432Z,79.80
2018-10-12T00:20:21.817Z,80.40
2018-10-12T00:22:50.828Z,79.90
2018-10-12T00:25:19.922Z,80.30
2018-10-12T00:27:49.727Z,80.70
2018-10-12T00:30:19.007Z,80.80
2018-10-12T00:32:48.103Z,81.20
2018-10-12T00:35:17.105Z,81.10
2018-10-12T00:37:46.178Z,81.10
2018-10-12T00:40:15.224Z,81.30
2018-10-12T00:42:44.632Z,81.50
2018-10-12T00:45:13.736Z,82.00
2018-10-12T00:47:43.209Z,82.20
2018-10-12T00:50:13.174Z,81.60
2018-10-12T00:52:42.869Z,81.70
2018-10-12T00:55:12.099Z,82.00
2018-10-12T00:57:41.464Z,82.40
2018-10-12T01:00:11.604Z,82.30
2018-10-12T01:02:41.168Z,82.00
2018-10-12T01:05:12.553Z,82.10
2018-10-12T01:07:42.123Z,82.40
2018-10-12T01:10:11.463Z,82.00
2018-10-12T01:12:41.817Z,82.30
2018-10-12T01:15:11.423Z,82.80
2018-10-12T01:17:40.986Z,83.10
2018-10-12T01:20:10.498Z,83.50
2018-10-12T01:22:40.177Z,83.60
2018-10-12T01:25:09.829Z,83.90
2018-10-12T01:27:38.853Z,83.80
2018-10-12T01:30:08.085Z,84.40
2018-10-12T01:32:42.651Z,83.80
2018-10-12T01:35:11.872Z,84.50
2018-10-12T01:37:41.334Z,84.30
2018-10-12T01:40:10.547Z,85.00
2018-10-12T01:42:40.170Z,84.80
2018-10-12T01:45:10.389Z,84.60
2018-10-12T01:47:39.737Z,85.10
2018-10-12T01:50:09.290Z,86.10
2018-10-12T01:52:38.518Z,85.30
2018-10-12T01:55:07.840Z,85.30
2018-10-12T01:57:36.930Z,86.10
2018-10-12T02:00:06.508Z,86.10
2018-10-12T02:02:35.811Z,86.00
2018-10-12T02:05:04.990Z,86.40
2018-10-12T02:07:34.685Z,86.30
2018-10-12T02:10:04.326Z,86.10
2018-10-12T02:12:34.251Z,86.40
2018-10-12T02:15:04.169Z,86.30
2018-10-12T02:17:33.221Z,86.30
2018-10-12T02:20:02.652Z,86.20
2018-10-12T02:22:32.043Z,86.00
2018-10-12T02:25:01.548Z,86.30
2018-10-12T02:27:30.574Z,86.10
2018-10-12T02:30:00.126Z,86.40
2018-10-12T02:32:29.199Z,86.80
2018-10-12T02:34:58.342Z,87.00
2018-10-12T02:37:28.162Z,87.00
2018-10-12T02:39:57.336Z,87.60
2018-10-12T02:42:26.928Z,87.60
2018-10-12T02:44:56.217Z,87.60
2018-10-12T02:47:25.402Z,87.90
2018-10-12T02:49:54.633Z,87.80
2018-10-12T02:52:24.571Z,88.00
2018-10-12T02:54:53.715Z,88.20
2018-10-12T02:57:22.993Z,88.10
2018-10-12T02:59:52.509Z,88.20
2018-10-12T03:02:21.735Z,89.20
2018-10-12T03:04:51.262Z,88.70
2018-10-12T03:07:20.716Z,88.50
2018-10-12T03:09:49.761Z,88.80
2018-10-12T03:12:19.152Z,88.60
2018-10-12T03:14:48.226Z,88.90
2018-10-12T03:17:17.258Z,89.70
2018-10-12T03:19:46.293Z,89.90
2018-10-12T03:22:15.361Z,90.10
2018-10-12T03:24:44.428Z,90.00
2018-10-12T03:27:13.473Z,90.70
2018-10-12T03:29:43.183Z,89.90
2018-10-12T03:32:12.566Z,90.30
2018-10-12T03:34:41.972Z,90.40
2018-10-12T03:37:10.913Z,90.60
2018-10-12T03:39:40.511Z,90.90
2018-10-12T03:42:10.378Z,90.80
2018-10-12T03:44:40.668Z,91.20
2018-10-12T03:47:10.149Z,91.20
2018-10-12T03:49:39.850Z,91.40
2018-10-12T03:52:10.449Z,91.60
2018-10-12T03:54:39.946Z,92.10
2018-10-12T03:57:10.000Z,92.00
2018-10-12T03:59:39.546Z,91.70
2018-10-12T04:02:08.924Z,92.20
2018-10-12T04:04:38.415Z,92.00
2018-10-12T04:07:08.574Z,92.20
2018-10-12T04:09:37.940Z,92.50
2018-10-12T04:12:07.735Z,91.70
2018-10-12T04:14:37.532Z,92.20
2018-10-12T04:17:07.956Z,92.30
2018-10-12T04:19:37.321Z,92.10
2018-10-12T04:22:07.112Z,92.50
2018-10-12T04:24:36.694Z,92.70
2018-10-12T04:27:06.481Z,92.60
2018-10-12T04:29:36.477Z,92.70
2018-10-12T04:32:05.985Z,92.90
2018-10-12T04:34:35.359Z,93.20
2018-10-12T04:37:05.989Z,93.10
2018-10-12T04:39:50.497Z,93.20
2018-10-12T04:42:19.713Z,93.40
2018-10-12T04:44:49.165Z,93.20
2018-10-12T04:47:18.880Z,93.30
2018-10-12T04:49:48.574Z,93.00
2018-10-12T04:52:18.153Z,93.00
2018-10-12T04:54:47.888Z,93.20
2018-10-12T04:57:18.108Z,93.00
2018-10-12T04:59:47.796Z,92.80
2018-10-12T05:02:17.126Z,93.30
2018-10-12T05:04:46.614Z,93.20
2018-10-12T05:07:16.583Z,93.50
2018-10-12T05:09:46.792Z,93.60
2018-10-12T05:12:18.636Z,93.40
2018-10-12T05:14:52.529Z,93.30
2018-10-12T05:17:23.091Z,93.70
2018-10-12T05:19:52.527Z,93.30
2018-10-12T05:22:21.753Z,93.50
2018-10-12T05:24:51.090Z,94.00
2018-10-12T05:27:20.559Z,94.10
2018-10-12T05:29:50.173Z,95.10
2018-10-12T05:32:20.838Z,95.80
2018-10-12T05:34:51.047Z,94.50
2018-10-12T05:37:20.570Z,93.30
2018-10-12T05:39:50.562Z,92.90
2018-10-12T05:42:21.135Z,93.10
2018-10-12T05:44:51.076Z,93.20
2018-10-12T05:47:21.358Z,93.30
2018-10-12T05:50:00.311Z,93.40
2018-10-12T05:52:30.556Z,93.30
2018-10-12T05:55:00.940Z,93.50
2018-10-12T05:57:32.033Z,92.80
2018-10-12T06:00:01.952Z,93.00
2018-10-12T06:02:31.772Z,93.00
2018-10-12T06:05:01.425Z,92.90
2018-10-12T06:07:31.832Z,92.30
2018-10-12T06:10:01.940Z,91.90
2018-10-12T06:12:31.318Z,92.10
2018-10-12T06:15:01.029Z,92.20
2018-10-12T06:17:32.297Z,91.90
2018-10-12T06:20:01.879Z,92.00
2018-10-12T06:22:31.352Z,91.40
2018-10-12T06:25:01.744Z,90.70
2018-10-12T06:27:31.449Z,90.30
2018-10-12T06:30:01.868Z,89.10
2018-10-12T06:32:32.091Z,88.60
2018-10-12T06:35:02.750Z,88.30
2018-10-12T06:37:32.864Z,83.20
2018-10-12T06:40:03.678Z,77.40
2018-10-12T06:42:34.859Z,72.70
2018-10-12T06:45:05.432Z,68.90
2018-10-12T06:47:36.184Z,65.40
2018-10-12T06:50:07.036Z,62.90
2018-10-12T06:52:37.041Z,60.00
2018-10-12T06:55:07.464Z,58.50
2018-10-12T06:57:37.227Z,57.40
2018-10-12T07:00:07.365Z,56.60
2018-10-12T07:02:37.203Z,55.00
2018-10-12T07:05:07.143Z,54.70
2018-10-12T07:07:37.205Z,53.90
2018-10-12T07:10:08.599Z,52.40
2018-10-12T07:12:38.375Z,53.60
2018-10-12T07:15:08.397Z,53.70
2018-10-12T07:17:37.965Z,53.30
2018-10-12T07:20:08.948Z,51.90
2018-10-12T07:22:38.982Z,52.10
2018-10-12T07:25:09.012Z,50.90
2018-10-12T07:27:41.571Z,50.50
2018-10-12T07:30:11.748Z,49.30
2018-10-12T07:32:47.532Z,48.60
2018-10-12T07:35:17.060Z,48.30
2018-10-12T07:37:46.587Z,47.70
2018-10-12T07:40:16.188Z,47.20
2018-10-12T07:42:45.651Z,47.90
2018-10-12T07:45:15.066Z,48.30
2018-10-12T07:47:44.899Z,49.60
2018-10-12T07:50:14.355Z,48.70
2018-10-12T07:52:44.437Z,48.10
2018-10-12T07:55:14.408Z,46.40
2018-10-12T07:57:45.629Z,45.90
2018-10-12T08:00:15.861Z,45.60
2018-10-12T08:02:46.722Z,44.80
2018-10-12T08:05:16.753Z,43.70
2018-10-12T08:07:46.787Z,42.50
2018-10-12T08:10:17.291Z,42.60
2018-10-12T08:12:47.564Z,42.70
2018-10-12T08:15:17.968Z,43.00
2018-10-12T08:17:47.753Z,42.40
2018-10-12T08:20:17.819Z,42.10
2018-10-12T08:22:54.380Z,41.20
2018-10-12T08:25:24.712Z,40.80
2018-10-12T08:27:55.068Z,41.40
2018-10-12T08:30:24.993Z,42.00
2018-10-12T08:32:55.338Z,43.30
2018-10-12T08:35:25.512Z,42.40
2018-10-12T08:37:55.822Z,42.30
2018-10-12T08:40:25.939Z,42.30
2018-10-12T08:42:56.144Z,41.90
2018-10-12T08:45:26.385Z,41.90
2018-10-12T08:47:56.302Z,42.10
2018-10-12T08:50:26.783Z,42.80
2018-10-12T08:52:56.747Z,44.70
2018-10-12T08:55:26.752Z,46.10
2018-10-12T08:57:57.612Z,48.30
2018-10-12T09:00:28.002Z,49.60
2018-10-12T09:02:57.472Z,50.70
2018-10-12T09:05:27.464Z,51.30
2018-10-12T09:07:56.866Z,51.80
2018-10-12T09:10:26.565Z,53.20
2018-10-12T09:12:56.519Z,53.20
2018-10-12T09:15:26.694Z,54.80
2018-10-12T09:17:56.209Z,55.60
2018-10-12T09:20:26.674Z,55.50
2018-10-12T09:22:56.294Z,55.80
2018-10-12T09:25:26.008Z,56.80
2018-10-12T09:27:56.198Z,56.20
2018-10-12T09:30:26.196Z,56.90
2018-10-12T09:32:57.277Z,56.60
2018-10-12T09:35:26.835Z,56.80
2018-10-12T09:37:56.155Z,56.60
2018-10-12T09:40:26.129Z,56.10
2018-10-12T09:42:56.066Z,56.60
2018-10-12T09:45:25.787Z,56.80
2018-10-12T09:47:54.855Z,57.00
2018-10-12T09:50:24.226Z,57.50
2018-10-12T09:52:53.423Z,57.60
2018-10-12T09:55:22.773Z,57.90
2018-10-12T09:57:51.931Z,58.40
2018-10-12T10:00:28.232Z,57.90
2018-10-12T10:02:58.798Z,58.80
2018-10-12T10:05:28.033Z,58.50
2018-10-12T10:07:57.276Z,58.80
2018-10-12T10:10:26.444Z,58.30
2018-10-12T10:12:55.584Z,58.80
2018-10-12T10:15:25.209Z,58.80
2018-10-12T10:17:55.092Z,59.30
2018-10-12T10:20:24.173Z,59.50
2018-10-12T10:22:53.856Z,59.10
2018-10-12T10:25:23.251Z,59.60
2018-10-12T10:27:52.719Z,59.20
2018-10-12T10:30:22.135Z,59.20
2018-10-12T10:32:51.253Z,59.50
2018-10-12T10:35:20.479Z,59.90
2018-10-12T10:37:49.513Z,59.30
2018-10-12T10:40:18.933Z,59.50
2018-10-12T10:42:48.080Z,60.40
2018-10-12T10:45:17.946Z,59.70
2018-10-12T10:47:47.736Z,59.90
2018-10-12T10:50:17.307Z,60.30
2018-10-12T10:52:47.024Z,60.80
2018-10-12T10:55:16.414Z,61.90
2018-10-12T10:57:45.966Z,61.10
2018-10-12T11:00:15.992Z,60.60
2018-10-12T11:02:45.286Z,60.80
2018-10-12T11:05:15.253Z,61.20
2018-10-12T11:07:45.346Z,61.20
2018-10-12T11:10:14.661Z,61.20
2018-10-12T11:12:44.126Z,61.40
2018-10-12T11:15:13.987Z,61.40
2018-10-12T11:17:43.398Z,61.00
2018-10-12T11:20:13.781Z,60.90
2018-10-12T11:22:44.117Z,61.30
2018-10-12T11:25:14.316Z,60.70
2018-10-12T11:27:43.691Z,62.10
2018-10-12T11:30:13.278Z,61.30
2018-10-12T11:32:42.762Z,61.10
2018-10-12T11:35:12.544Z,61.40
2018-10-12T11:37:41.943Z,61.30
2018-10-12T11:40:11.216Z,61.10
2018-10-12T11:42:51.777Z,60.80
2018-10-12T11:45:21.323Z,60.20
2018-10-12T11:47:51.514Z,60.10
2018-10-12T11:50:21.520Z,60.60
2018-10-12T11:52:51.044Z,59.40
2018-10-12T11:55:20.379Z,59.40
2018-10-12T11:57:50.506Z,59.80
2018-10-12T12:00:20.050Z,60.10
2018-10-12T12:02:50.293Z,60.00
2018-10-12T12:05:20.036Z,60.00
2018-10-12T12:07:49.949Z,60.70
2018-10-12T12:10:19.218Z,60.40
2018-10-12T12:12:48.642Z,60.60
2018-10-12T12:15:18.358Z,60.20
2018-10-12T12:17:47.371Z,60.60
2018-10-12T12:20:16.487Z,60.80
2018-10-12T12:22:45.515Z,61.20
2018-10-12T12:25:15.236Z,61.30
2018-10-12T12:27:44.288Z,60.80
2018-10-12T12:30:13.374Z,60.90
2018-10-12T12:32:42.918Z,60.10
2018-10-12T12:35:12.786Z,60.40
2018-10-12T12:37:42.239Z,61.20
2018-10-12T12:40:11.326Z,60.50
2018-10-12T12:42:40.921Z,61.50
2018-10-12T12:45:10.722Z,59.90
2018-10-12T12:47:40.071Z,59.70
2018-10-12T12:50:09.602Z,60.10
2018-10-12T12:52:39.137Z,60.90
2018-10-12T12:55:09.170Z,61.80
2018-10-12T12:57:38.698Z,61.30
2018-10-12T13:00:09.170Z,60.70
2018-10-12T13:02:39.659Z,60.60
2018-10-12T13:05:09.252Z,60.30
2018-10-12T13:07:38.892Z,60.20
2018-10-12T13:10:08.675Z,60.10
2018-10-12T13:12:38.536Z,60.40
2018-10-12T13:15:08.447Z,60.20
2018-10-12T13:17:37.868Z,59.80
2018-10-12T13:20:07.758Z,60.30
2018-10-12T13:22:37.700Z,59.80
2018-10-12T13:25:07.416Z,59.90
2018-10-12T13:27:37.568Z,59.90
2018-10-12T13:30:07.546Z,59.70
2018-10-12T13:32:38.061Z,60.90
2018-10-12T13:35:08.331Z,59.60
2018-10-12T13:37:40.155Z,60.10
2018-10-12T13:40:10.158Z,59.60
2018-10-12T13:42:40.663Z,59.60
2018-10-12T13:45:10.473Z,59.70
2018-10-12T13:47:39.909Z,60.60
2018-10-12T13:50:10.321Z,60.50
2018-10-12T13:52:40.325Z,60.40
2018-10-12T13:55:11.078Z,60.40
2018-10-12T13:57:41.523Z,60.50
2018-10-12T14:00:12.451Z,60.00
2018-10-12T14:02:43.619Z,61.00
2018-10-12T14:05:13.595Z,60.50
2018-10-12T14:07:43.304Z,60.50
2018-10-12T14:10:13.249Z,60.80
2018-10-12T14:12:42.823Z,60.80
2018-10-12T14:15:12.633Z,60.70
2018-10-12T14:17:42.559Z,60.50
2018-10-12T14:20:12.976Z,60.30
2018-10-12T14:22:42.604Z,60.80
2018-10-12T14:25:12.484Z,59.70
2018-10-12T14:27:42.344Z,59.60
2018-10-12T14:30:12.752Z,59.40
2018-10-12T14:32:42.436Z,59.10
2018-10-12T14:35:11.781Z,58.80
2018-10-12T14:37:41.366Z,59.30
2018-10-12T14:40:11.181Z,59.00
2018-10-12T14:42:40.437Z,59.00
2018-10-12T14:45:09.694Z,58.60
2018-10-12T14:47:38.936Z,58.80
2018-10-12T14:50:08.452Z,58.60
2018-10-12T14:52:38.981Z,58.50
2018-10-12T14:55:09.201Z,58.50
2018-10-12T14:57:38.715Z,58.90
2018-10-12T15:00:09.085Z,59.20
2018-10-12T15:02:38.399Z,59.10
2018-10-12T15:05:07.594Z,59.10
2018-10-12T15:07:36.802Z,58.70
2018-10-12T15:10:06.152Z,58.90
2018-10-12T15:12:36.162Z,58.90
2018-10-12T15:15:19.346Z,59.00
2018-10-12T15:17:51.451Z,58.90
2018-10-12T15:20:21.201Z,59.30
2018-10-12T15:22:51.513Z,59.50
2018-10-12T15:25:21.312Z,59.80
2018-10-12T15:27:50.747Z,59.50
2018-10-12T15:30:20.718Z,59.70
2018-10-12T15:32:50.523Z,60.30
2018-10-12T15:35:20.363Z,59.80
2018-10-12T15:37:49.978Z,60.10
2018-10-12T15:40:19.269Z,60.30
2018-10-12T15:42:49.151Z,60.40
2018-10-12T15:45:18.871Z,60.80
2018-10-12T15:47:47.977Z,60.50
2018-10-12T15:50:17.349Z,61.10
2018-10-12T15:52:46.580Z,61.60
2018-10-12T15:55:16.431Z,62.10
2018-10-12T15:57:45.939Z,62.30
2018-10-12T16:00:15.410Z,62.20
2018-10-12T16:02:44.738Z,62.80
2018-10-12T16:05:13.886Z,62.80
2018-10-12T16:07:43.102Z,63.00
2018-10-12T16:10:12.499Z,63.20
2018-10-12T16:12:41.985Z,63.60
2018-10-12T16:15:11.468Z,63.60
2018-10-12T16:17:41.257Z,64.00
2018-10-12T16:20:11.733Z,64.10
2018-10-12T16:22:41.940Z,64.50
2018-10-12T16:25:22.703Z,64.40
2018-10-12T16:27:51.849Z,64.60
2018-10-12T16:30:21.789Z,64.80
2018-10-12T16:32:51.411Z,64.80
2018-10-12T16:35:20.841Z,64.90
2018-10-12T16:37:50.322Z,64.80
2018-10-12T16:40:19.821Z,65.10
2018-10-12T16:42:49.024Z,65.20
2018-10-12T16:45:18.211Z,65.40
2018-10-12T16:47:47.271Z,65.60
2018-10-12T16:50:16.415Z,65.40
2018-10-12T16:52:45.625Z,65.60
2018-10-12T16:55:15.273Z,66.10
2018-10-12T16:57:44.583Z,66.30
2018-10-12T17:00:14.497Z,66.40
2018-10-12T17:02:43.710Z,66.80
2018-10-12T17:05:13.460Z,67.00
2018-10-12T17:07:43.327Z,67.10
2018-10-12T17:10:13.699Z,67.30
2018-10-12T17:12:43.099Z,67.40
2018-10-12T17:15:13.423Z,67.40
2018-10-12T17:17:43.586Z,67.70
2018-10-12T17:20:13.481Z,68.00
2018-10-12T17:22:44.323Z,68.10
2018-10-12T17:25:14.576Z,68.30
2018-10-12T17:27:44.449Z,68.50
2018-10-12T17:30:14.535Z,68.90
2018-10-12T17:32:44.318Z,69.00
2018-10-12T17:35:14.372Z,69.40
2018-10-12T17:37:44.285Z,69.60
2018-10-12T17:40:14.116Z,69.50
2018-10-12T17:42:44.067Z,69.60
2018-10-12T17:45:14.823Z,70.10
2018-10-12T17:47:45.558Z,70.10
2018-10-12T17:50:15.284Z,70.30
2018-10-12T17:52:45.311Z,70.90
2018-10-12T17:55:15.397Z,71.20
2018-10-12T17:57:46.396Z,70.60
2018-10-12T18:00:16.080Z,71.10
2018-10-12T18:02:46.123Z,71.20
2018-10-12T18:05:16.208Z,71.40
2018-10-12T18:07:45.731Z,71.60
2018-10-12T18:10:15.145Z,71.60
2018-10-12T18:12:44.599Z,71.80
2018-10-12T18:15:13.902Z,71.80
2018-10-12T18:17:43.253Z,72.30
2018-10-12T18:20:13.138Z,72.90
2018-10-12T18:22:42.439Z,72.50
2018-10-12T18:25:12.048Z,72.50
2018-10-12T18:27:42.255Z,72.60
2018-10-12T18:30:14.690Z,73.40
2018-10-12T18:32:44.222Z,74.00
2018-10-12T18:35:13.530Z,73.70
2018-10-12T18:37:42.715Z,74.10
2018-10-12T18:40:12.383Z,74.40
2018-10-12T18:42:43.198Z,74.40
2018-10-12T18:45:12.933Z,74.30
2018-10-12T18:47:42.563Z,75.10
2018-10-12T18:50:12.254Z,75.20
2018-10-12T18:52:41.698Z,75.30
2018-10-12T18:55:11.572Z,75.30
2018-10-12T18:57:42.189Z,75.80
2018-10-12T19:00:11.839Z,75.80
2018-10-12T19:02:42.179Z,75.70
2018-10-12T19:05:11.715Z,76.20
2018-10-12T19:07:41.522Z,76.40
2018-10-12T19:10:11.766Z,76.60
2018-10-12T19:12:41.996Z,76.80
2018-10-12T19:15:12.406Z,77.10
2018-10-12T19:17:42.626Z,76.90
2018-10-12T19:20:12.748Z,77.40
2018-10-12T19:22:42.384Z,77.40
2018-10-12T19:25:11.930Z,77.70
2018-10-12T19:27:41.568Z,77.60
2018-10-12T19:30:11.203Z,77.40
2018-10-12T19:32:40.875Z,77.20
2018-10-12T19:35:12.161Z,77.50
2018-10-12T19:37:42.044Z,77.80
2018-10-12T19:40:12.173Z,78.10
2018-10-12T19:42:41.785Z,78.00
2018-10-12T19:45:11.417Z,78.40
2018-10-12T19:47:41.331Z,78.10
2018-10-12T19:50:11.306Z,78.60
2018-10-12T19:52:41.519Z,78.60
2018-10-12T19:55:12.267Z,78.70
2018-10-12T19:57:42.627Z,78.80
2018-10-12T20:00:12.708Z,78.80
2018-10-12T20:02:42.914Z,78.60
2018-10-12T20:05:12.894Z,78.40
2018-10-12T20:07:44.186Z,78.50
2018-10-12T20:10:14.352Z,78.40
2018-10-12T20:12:45.150Z,78.50
2018-10-12T20:15:14.965Z,78.60
2018-10-12T20:17:45.103Z,79.00
2018-10-12T20:20:15.759Z,79.00
2018-10-12T20:22:46.191Z,79.30
2018-10-12T20:25:16.079Z,78.90
2018-10-12T20:27:46.243Z,79.20
2018-10-12T20:30:16.394Z,79.70
2018-10-12T20:32:46.477Z,79.40
2018-10-12T20:35:16.482Z,79.80
2018-10-12T20:37:47.309Z,79.50
2018-10-12T20:40:17.409Z,80.40
2018-10-12T20:42:47.470Z,80.60
2018-10-12T20:45:17.081Z,80.60
2018-10-12T20:47:47.479Z,81.00
2018-10-12T20:50:17.272Z,81.60
2018-10-12T20:52:47.079Z,81.50
2018-10-12T20:55:17.096Z,80.70
2018-10-12T20:57:48.574Z,80.90
2018-10-12T21:00:19.936Z,81.50
2018-10-12T21:02:49.930Z,81.50
2018-10-12T21:05:19.938Z,80.70
2018-10-12T21:07:49.846Z,81.20
2018-10-12T21:10:19.862Z,81.20
2018-10-12T21:12:49.734Z,81.20
2018-10-12T21:15:19.689Z,81.40
2018-10-12T21:17:49.823Z,81.50
2018-10-12T21:20:19.742Z,81.40
2018-10-12T21:22:49.699Z,81.80
2018-10-12T21:25:19.166Z,81.40
2018-10-12T21:27:49.076Z,81.90
2018-10-12T21:30:19.712Z,82.00
2018-10-12T21:32:49.235Z,82.70
2018-10-12T21:35:19.479Z,82.10
2018-10-12T21:37:52.414Z,82.40
2018-10-12T21:40:22.478Z,82.80
2018-10-12T21:42:52.581Z,82.70
2018-10-12T21:45:24.922Z,82.80
2018-10-12T21:47:55.967Z,83.20
2018-10-12T21:50:25.619Z,83.20
2018-10-12T21:52:56.020Z,82.70
2018-10-12T21:55:27.060Z,83.20
2018-10-12T21:57:57.346Z,83.00
2018-10-12T22:00:26.838Z,83.10
2018-10-12T22:02:56.604Z,83.30
2018-10-12T22:05:26.367Z,83.20
2018-10-12T22:07:56.585Z,83.50
2018-10-12T22:10:27.375Z,83.50
2018-10-12T22:12:57.504Z,83.80
2018-10-12T22:15:27.109Z,84.00
2018-10-12T22:17:57.361Z,83.50
2018-10-12T22:20:26.583Z,83.90
2018-10-12T22:22:55.785Z,84.50
2018-10-12T22:25:24.773Z,83.80
2018-10-12T22:27:54.393Z,83.80
2018-10-12T22:30:23.698Z,83.60
2018-10-12T22:32:52.854Z,84.00
2018-10-12T22:35:22.344Z,84.50
2018-10-12T22:37:51.398Z,84.20
2018-10-12T22:40:20.844Z,84.60
2018-10-12T22:42:50.445Z,84.40
2018-10-12T22:45:20.494Z,85.10
2018-10-12T22:47:49.911Z,84.60
2018-10-12T22:50:19.326Z,85.10
2018-10-12T22:52:48.731Z,84.70
2018-10-12T22:55:19.653Z,85.60
2018-10-12T22:57:48.810Z,85.00
2018-10-12T23:00:18.162Z,84.90
2018-10-12T23:02:47.704Z,85.40
2018-10-12T23:05:16.853Z,85.70
2018-10-12T23:07:46.111Z,85.20
2018-10-12T23:10:15.397Z,86.40
2018-10-12T23:12:45.356Z,85.60
2018-10-12T23:15:15.779Z,85.40
2018-10-12T23:17:45.527Z,85.80
2018-10-12T23:20:15.639Z,85.60
2018-10-12T23:22:44.909Z,86.10
2018-10-12T23:25:14.445Z,85.70
2018-10-12T23:27:44.155Z,86.00
2018-10-12T23:30:14.399Z,86.80
2018-10-12T23:32:43.770Z,87.10
2018-10-12T23:35:14.108Z,86.20
2018-10-12T23:37:43.546Z,86.60
2018-10-12T23:40:13.063Z,87.10
2018-10-12T23:42:43.302Z,87.10
2018-10-12T23:45:12.678Z,87.10
2018-10-12T23:47:42.786Z,87.10
2018-10-12T23:50:12.455Z,87.30
2018-10-12T23:52:42.115Z,87.90
2018-10-12T23:55:11.698Z,88.10
2018-10-12T23:57:40.941Z,87.30
